createdAt,value
2023-04-21T00:00:15.236Z,99376.03
2023-04-21T00:02:42.704Z,99379.48
2023-04-21T00:05:10.321Z,99375.98
2023-04-21T00:07:40.163Z,99376.36
2023-04-21T00:10:09.137Z,99372.89
2023-04-21T00:12:40.808Z,99375.05
2023-04-21T00:15:08.741Z,99376.93
2023-04-21T00:17:36.299Z,99369.71
2023-04-21T00:20:05.231Z,99372.48
2023-04-21T00:22:32.329Z,99373.91
2023-04-21T00:24:59.000Z,99371.67
2023-04-21T00:27:25.655Z,99371.09
2023-04-21T00:29:52.391Z,99371.33
2023-04-21T00:32:19.158Z,99370.85
2023-04-21T00:34:46.384Z,99367.23
2023-04-21T00:37:15.128Z,99365.73
2023-04-21T00:39:43.880Z,99364.13
2023-04-21T00:42:10.962Z,99366.88
2023-04-21T00:44:37.799Z,99362.36
2023-04-21T00:47:05.433Z,99361.52
2023-04-21T00:49:32.730Z,99367.60
2023-04-21T00:51:59.384Z,99367.50
2023-04-21T00:54:26.109Z,99373.60
2023-04-21T00:56:54.705Z,99370.82
2023-04-21T00:59:21.515Z,99365.96
2023-04-21T01:01:48.302Z,99364.79
2023-04-21T01:04:15.270Z,99362.77
2023-04-21T01:06:42.493Z,99365.86
2023-04-21T01:09:09.203Z,99364.30
2023-04-21T01:11:38.209Z,99363.10
2023-04-21T01:14:08.007Z,99365.99
2023-04-21T01:16:34.892Z,99362.41
2023-04-21T01:19:01.711Z,99357.66
2023-04-21T01:21:28.795Z,99353.69
2023-04-21T01:23:55.510Z,99357.63
2023-04-21T01:26:22.346Z,99357.20
2023-04-21T01:28:49.193Z,99358.38
2023-04-21T01:31:15.997Z,99352.04
2023-04-21T01:33:44.187Z,99357.44
2023-04-21T01:36:10.908Z,99355.04
2023-04-21T01:38:39.188Z,99354.52
2023-04-21T01:41:05.869Z,99352.69
2023-04-21T01:43:32.630Z,99352.20
2023-04-21T01:45:59.562Z,99350.45
2023-04-21T01:48:26.355Z,99351.58
2023-04-21T01:50:53.232Z,99348.71
2023-04-21T01:53:20.020Z,99348.35
2023-04-21T01:55:46.832Z,99345.44
2023-04-21T01:58:13.625Z,99343.41
2023-04-21T02:00:40.646Z,99344.29
2023-04-21T02:03:07.638Z,99340.77
2023-04-21T02:05:34.870Z,99338.89
2023-04-21T02:08:01.942Z,99338.25
2023-04-21T02:10:34.235Z,99335.69
2023-04-21T02:15:51.605Z,99329.49
2023-04-21T02:18:29.118Z,99323.27
2023-04-21T02:23:56.339Z,99311.11
2023-04-21T02:26:40.665Z,99311.94
2023-04-21T02:29:17.964Z,99311.66
2023-04-21T02:32:03.074Z,99316.35
2023-04-21T02:37:02.894Z,99317.63
2023-04-21T02:37:50.489Z,99315.82
2023-04-21T02:40:25.043Z,99317.63
2023-04-21T02:42:53.223Z,99313.92
2023-04-21T02:45:34.749Z,99311.30
2023-04-21T02:48:16.725Z,99308.63
2023-04-21T02:51:01.157Z,99306.94
2023-04-21T02:53:31.353Z,99306.34
2023-04-21T02:55:58.500Z,99304.14
2023-04-21T02:58:25.127Z,99303.40
2023-04-21T03:00:51.850Z,99305.67
2023-04-21T03:03:18.948Z,99309.77
2023-04-21T03:05:46.030Z,99309.85
2023-04-21T03:09:49.204Z,99309.36
2023-04-21T03:12:16.626Z,99309.67
2023-04-21T03:14:44.644Z,99309.30
2023-04-21T03:17:11.348Z,99308.35
2023-04-21T03:19:38.061Z,99308.42
2023-04-21T03:22:05.950Z,99308.98
2023-04-21T03:24:33.473Z,99310.89
2023-04-21T03:27:01.321Z,99311.60
2023-04-21T03:29:28.264Z,99309.19
2023-04-21T03:31:55.016Z,99310.66
2023-04-21T03:34:22.446Z,99311.08
2023-04-21T03:36:49.098Z,99310.70
2023-04-21T03:39:19.979Z,99310.20
2023-04-21T03:41:47.696Z,99308.65
2023-04-21T03:44:14.415Z,99307.27
2023-04-21T03:46:41.079Z,99311.02
2023-04-21T03:49:07.831Z,99306.10
2023-04-21T03:51:34.575Z,99306.10
2023-04-21T03:54:01.295Z,99305.76
2023-04-21T03:56:28.439Z,99306.01
2023-04-21T03:58:55.182Z,99300.95
2023-04-21T04:01:22.495Z,99297.59
2023-04-21T04:03:49.399Z,99293.95
2023-04-21T04:06:16.303Z,99293.98
2023-04-21T04:08:43.174Z,99294.30
2023-04-21T04:11:09.914Z,99292.33
2023-04-21T04:13:36.659Z,99295.49
2023-04-21T04:16:03.736Z,99292.27
2023-04-21T04:18:30.813Z,99294.31
2023-04-21T04:20:57.499Z,99297.62
2023-04-21T04:23:25.528Z,99297.14
2023-04-21T04:25:52.281Z,99299.23
2023-04-21T04:28:18.889Z,99299.89
2023-04-21T04:30:45.631Z,99305.15
2023-04-21T04:33:12.323Z,99304.59
2023-04-21T04:35:38.979Z,99304.65
2023-04-21T04:38:07.093Z,99300.48
2023-04-21T04:40:33.822Z,99303.14
2023-04-21T04:43:02.140Z,99308.12
2023-04-21T04:45:32.416Z,99306.06
2023-04-21T04:47:59.651Z,99308.02
2023-04-21T04:50:26.602Z,99309.32
2023-04-21T04:52:53.404Z,99309.92
2023-04-21T04:55:21.582Z,99312.30
2023-04-21T04:57:49.657Z,99312.39
2023-04-21T05:00:16.687Z,99313.05
2023-04-21T05:02:43.636Z,99315.98
2023-04-21T05:05:10.515Z,99312.87
2023-04-21T05:07:37.776Z,99315.16
2023-04-21T05:10:05.209Z,99317.14
2023-04-21T05:12:32.362Z,99317.86
2023-04-21T05:14:59.232Z,99317.09
2023-04-21T05:17:26.741Z,99318.44
2023-04-21T05:19:53.400Z,99324.17
2023-04-21T05:22:20.275Z,99322.96
2023-04-21T05:24:47.620Z,99321.17
2023-04-21T05:27:14.264Z,99318.27
2023-04-21T05:29:41.090Z,99315.09
2023-04-21T05:32:08.584Z,99314.59
2023-04-21T05:34:35.856Z,99318.77
2023-04-21T05:37:02.653Z,99316.14
2023-04-21T05:39:30.120Z,99316.91
2023-04-21T05:41:57.309Z,99308.07
2023-04-21T05:44:25.034Z,99303.46
2023-04-21T05:46:51.764Z,99303.31
2023-04-21T05:49:18.671Z,99299.91
2023-04-21T05:51:45.650Z,99298.76
2023-04-21T05:54:12.900Z,99296.02
2023-04-21T05:56:39.583Z,99295.90
2023-04-21T05:59:06.585Z,99296.42
2023-04-21T06:01:33.399Z,99293.48
2023-04-21T06:04:00.525Z,99295.80
2023-04-21T06:06:27.625Z,99295.41
2023-04-21T06:08:54.966Z,99298.69
2023-04-21T06:11:21.845Z,99300.27
2023-04-21T06:13:49.715Z,99300.90
2023-04-21T06:16:16.681Z,99299.00
2023-04-21T06:18:43.470Z,99296.39
2023-04-21T06:21:10.465Z,99295.91
2023-04-21T06:23:37.103Z,99297.51
2023-04-21T06:26:06.349Z,99293.56
2023-04-21T06:28:33.903Z,99291.05
2023-04-21T06:31:01.215Z,99286.91
2023-04-21T06:33:29.256Z,99289.59
2023-04-21T06:35:56.165Z,99291.10
2023-04-21T06:38:23.164Z,99289.69
2023-04-21T06:40:50.328Z,99288.92
2023-04-21T06:43:17.391Z,99288.05
2023-04-21T06:45:44.533Z,99290.36
2023-04-21T06:48:11.416Z,99290.58
2023-04-21T06:50:38.273Z,99291.45
2023-04-21T06:53:05.153Z,99294.02
2023-04-21T06:55:32.045Z,99292.73
2023-04-21T06:57:58.977Z,99295.88
2023-04-21T07:00:25.726Z,99292.66
2023-04-21T07:02:52.701Z,99293.39
2023-04-21T07:05:22.807Z,99293.85
2023-04-21T07:07:49.757Z,99288.61
2023-04-21T07:10:19.352Z,99290.91
2023-04-21T07:12:46.948Z,99286.02
2023-04-21T07:15:13.677Z,99283.95
2023-04-21T07:17:40.752Z,99281.70
2023-04-21T07:20:08.437Z,99282.35
2023-04-21T07:22:37.120Z,99289.98
2023-04-21T07:25:06.774Z,99287.41
2023-04-21T07:27:37.787Z,99283.14
2023-04-21T07:30:05.355Z,99285.50
2023-04-21T07:32:33.085Z,99287.45
2023-04-21T07:35:01.329Z,99283.89
2023-04-21T07:37:28.364Z,99286.52
2023-04-21T07:39:55.245Z,99287.77
2023-04-21T07:42:22.272Z,99293.19
2023-04-21T07:44:49.366Z,99294.20
2023-04-21T07:47:16.304Z,99292.86
2023-04-21T07:49:43.097Z,99291.25
2023-04-21T07:52:09.976Z,99289.34
2023-04-21T07:54:37.295Z,99288.48
2023-04-21T07:57:04.104Z,99288.13
2023-04-21T07:59:33.057Z,99287.48
2023-04-21T08:02:00.213Z,99288.00
2023-04-21T08:04:27.657Z,99289.29
2023-04-21T08:06:54.503Z,99289.91
2023-04-21T08:09:21.450Z,99294.75
2023-04-21T08:11:48.425Z,99289.45
2023-04-21T08:14:15.820Z,99289.84
2023-04-21T08:16:42.621Z,99292.11
2023-04-21T08:19:09.641Z,99290.15
2023-04-21T08:21:36.622Z,99283.27
2023-04-21T08:24:03.731Z,99281.89
2023-04-21T08:26:33.256Z,99284.69
2023-04-21T08:29:02.713Z,99290.05
2023-04-21T08:31:31.198Z,99288.44
2023-04-21T08:34:02.362Z,99291.52
2023-04-21T08:36:31.247Z,99293.73
2023-04-21T08:38:58.680Z,99290.95
2023-04-21T08:41:25.847Z,99290.02
2023-04-21T08:43:52.631Z,99299.33
2023-04-21T08:46:21.509Z,99290.66
2023-04-21T08:48:48.454Z,99300.09
2023-04-21T08:51:21.237Z,99301.96
2023-04-21T08:53:48.269Z,99298.02
2023-04-21T08:56:15.289Z,99305.29
2023-04-21T08:58:42.238Z,99296.62
2023-04-21T09:01:09.033Z,99295.97
2023-04-21T09:03:37.986Z,99301.23
2023-04-21T09:06:09.465Z,99300.36
2023-04-21T09:08:39.378Z,99297.91
2023-04-21T09:11:06.498Z,99292.40
2023-04-21T09:13:34.811Z,99296.54
2023-04-21T09:16:05.096Z,99303.88
2023-04-21T09:18:36.533Z,99303.60
2023-04-21T09:21:09.053Z,99303.29
2023-04-21T09:23:41.031Z,99307.80
2023-04-21T09:26:08.246Z,99312.96
2023-04-21T09:28:35.243Z,99313.62
2023-04-21T09:31:02.057Z,99318.06
2023-04-21T09:33:42.291Z,99320.61
2023-04-21T09:36:27.284Z,99321.06
2023-04-21T09:39:20.714Z,99319.70
2023-04-21T09:41:45.145Z,99326.38
2023-04-21T09:44:11.932Z,99330.39
2023-04-21T09:46:38.809Z,99329.12
2023-04-21T09:49:06.329Z,99334.39
2023-04-21T09:52:05.325Z,99333.19
2023-04-21T09:56:53.087Z,99329.38
2023-04-21T09:59:25.193Z,99334.99
2023-04-21T10:01:51.949Z,99339.02
2023-04-21T10:04:19.065Z,99338.59
2023-04-21T10:06:47.350Z,99345.55
2023-04-21T10:09:16.264Z,99345.19
2023-04-21T10:11:42.908Z,99348.98
2023-04-21T10:14:09.635Z,99351.01
2023-04-21T10:16:39.435Z,99354.90
2023-04-21T10:19:28.531Z,99356.21
2023-04-21T10:21:57.009Z,99357.38
2023-04-21T10:24:23.927Z,99360.02
2023-04-21T10:26:52.481Z,99371.29
2023-04-21T10:29:47.828Z,99372.49
2023-04-21T10:33:01.461Z,99375.47
2023-04-21T10:35:57.862Z,99379.80
2023-04-21T10:38:43.388Z,99380.52
2023-04-21T10:41:27.565Z,99371.25
2023-04-21T10:44:01.743Z,99364.30
2023-04-21T10:46:32.059Z,99358.71
2023-04-21T10:49:08.971Z,99351.73
2023-04-21T10:52:04.720Z,99349.02
2023-04-21T10:54:45.012Z,99351.95
2023-04-21T10:57:13.536Z,99349.09
2023-04-21T10:59:40.756Z,99353.48
2023-04-21T11:02:10.523Z,99359.04
2023-04-21T11:04:47.265Z,99357.52
2023-04-21T11:07:16.369Z,99354.95
2023-04-21T11:09:46.703Z,99355.33
2023-04-21T11:12:19.608Z,99352.24
2023-04-21T11:14:49.357Z,99348.46
2023-04-21T11:17:17.595Z,99350.08
2023-04-21T11:19:49.574Z,99343.23
2023-04-21T11:22:18.298Z,99349.78
2023-04-21T11:24:45.673Z,99347.69
2023-04-21T11:27:13.999Z,99338.83
2023-04-21T11:29:41.404Z,99342.08
2023-04-21T11:32:08.516Z,99341.27
2023-04-21T11:34:38.924Z,99332.54
2023-04-21T11:37:10.075Z,99326.83
2023-04-21T11:39:40.258Z,99322.74
2023-04-21T11:42:07.776Z,99323.45
2023-04-21T11:44:39.187Z,99323.44
2023-04-21T11:47:12.358Z,99323.42
2023-04-21T11:49:46.295Z,99319.42
2023-04-21T11:52:40.923Z,99310.77
2023-04-21T11:55:20.189Z,99309.18
2023-04-21T11:57:47.519Z,99303.02
2023-04-21T12:00:15.174Z,99301.96
2023-04-21T12:02:42.528Z,99303.23
2023-04-21T12:05:11.271Z,99306.18
2023-04-21T12:07:41.546Z,99303.72
2023-04-21T12:10:18.218Z,99297.40
2023-04-21T12:12:45.873Z,99297.02
2023-04-21T12:15:20.809Z,99291.77
2023-04-21T12:17:48.149Z,99284.70
2023-04-21T12:20:15.594Z,99278.29
2023-04-21T12:22:42.337Z,99272.97
2023-04-21T12:25:15.197Z,99271.15
2023-04-21T12:27:52.120Z,99266.92
2023-04-21T12:30:19.624Z,99267.55
2023-04-21T12:32:47.581Z,99271.27
2023-04-21T12:35:14.493Z,99269.42
2023-04-21T12:37:41.162Z,99271.70
2023-04-21T12:40:08.375Z,99275.68
2023-04-21T12:42:38.021Z,99271.78
2023-04-21T12:45:06.267Z,99273.70
2023-04-21T12:47:34.254Z,99269.10
2023-04-21T12:50:00.961Z,99266.83
2023-04-21T12:52:28.227Z,99264.98
2023-04-21T12:54:54.923Z,99265.20
2023-04-21T12:57:22.270Z,99263.60
2023-04-21T12:59:49.140Z,99262.96
2023-04-21T13:02:16.290Z,99268.04
2023-04-21T13:04:43.208Z,99263.30
2023-04-21T13:07:10.199Z,99263.23
2023-04-21T13:09:36.872Z,99263.20
2023-04-21T13:12:03.603Z,99264.14
2023-04-21T13:14:31.097Z,99265.90
2023-04-21T13:16:57.882Z,99265.38
2023-04-21T13:19:25.094Z,99263.95
2023-04-21T13:21:54.041Z,99262.09
2023-04-21T13:24:21.597Z,99259.02
2023-04-21T13:26:48.504Z,99255.68
2023-04-21T13:29:15.545Z,99254.77
2023-04-21T13:31:42.374Z,99253.39
2023-04-21T13:34:08.992Z,99249.77
2023-04-21T13:36:35.756Z,99249.59
2023-04-21T13:39:04.929Z,99246.25
2023-04-21T13:41:31.557Z,99244.69
2023-04-21T13:43:58.364Z,99240.92
2023-04-21T13:46:25.056Z,99234.94
2023-04-21T13:48:51.836Z,99237.47
2023-04-21T13:51:20.291Z,99234.21
2023-04-21T13:53:47.438Z,99234.95
2023-04-21T13:56:14.336Z,99235.63
2023-04-21T13:58:41.303Z,99234.39
2023-04-21T14:01:08.285Z,99235.95
2023-04-21T14:03:35.986Z,99235.14
2023-04-21T14:06:03.112Z,99235.45
2023-04-21T14:08:29.816Z,99234.36
2023-04-21T14:10:56.973Z,99235.77
2023-04-21T14:13:41.865Z,99231.38
2023-04-21T14:16:16.670Z,99234.77
2023-04-21T14:18:44.821Z,99232.97
2023-04-21T14:21:11.737Z,99232.28
2023-04-21T14:23:38.594Z,99235.77
2023-04-21T14:26:05.597Z,99231.09
2023-04-21T14:28:33.503Z,99232.45
2023-04-21T14:31:00.410Z,99228.05
2023-04-21T14:33:28.429Z,99232.31
2023-04-21T14:35:55.729Z,99236.18
2023-04-21T14:38:22.985Z,99233.31
2023-04-21T14:40:50.686Z,99231.46
2023-04-21T14:43:17.440Z,99227.76
2023-04-21T14:45:44.191Z,99225.83
2023-04-21T14:48:13.490Z,99223.41
2023-04-21T14:50:40.880Z,99230.10
2023-04-21T14:53:07.908Z,99229.19
2023-04-21T14:55:35.208Z,99228.60
2023-04-21T14:58:01.894Z,99226.07
2023-04-21T15:00:31.076Z,99226.86
2023-04-21T15:02:58.303Z,99224.36
2023-04-21T15:05:25.128Z,99225.87
2023-04-21T15:07:51.904Z,99229.31
2023-04-21T15:10:18.851Z,99233.33
2023-04-21T15:12:45.774Z,99235.04
2023-04-21T15:15:12.434Z,99235.10
2023-04-21T15:17:40.011Z,99233.02
2023-04-21T15:20:14.771Z,99229.36
2023-04-21T15:22:41.590Z,99231.72
2023-04-21T15:27:18.284Z,99237.27
2023-04-21T15:29:46.560Z,99239.41
2023-04-21T15:32:14.665Z,99247.81
2023-04-21T15:34:42.816Z,99257.42
2023-04-21T15:37:10.916Z,99255.04
2023-04-21T15:39:39.382Z,99256.20
2023-04-21T15:42:08.677Z,99251.65
2023-04-21T15:44:39.351Z,99249.02
2023-04-21T15:47:07.959Z,99245.71
2023-04-21T15:49:36.836Z,99245.28
2023-04-21T15:52:06.789Z,99239.11
2023-04-21T15:54:36.655Z,99234.30
2023-04-21T15:57:05.945Z,99235.10
2023-04-21T15:59:34.418Z,99240.96
2023-04-21T16:02:03.315Z,99243.96
2023-04-21T16:04:31.923Z,99245.77
2023-04-21T16:07:02.885Z,99244.33
2023-04-21T16:09:31.348Z,99237.09
2023-04-21T16:11:59.515Z,99242.70
2023-04-21T16:14:29.072Z,99242.86
2023-04-21T16:17:05.392Z,99237.73
2023-04-21T16:19:34.928Z,99232.21
2023-04-21T16:22:07.340Z,99230.85
2023-04-21T16:24:36.061Z,99224.08
2023-04-21T16:27:04.929Z,99207.92
2023-04-21T16:29:33.214Z,99205.59
2023-04-21T16:32:01.729Z,99199.14
2023-04-21T16:34:30.511Z,99197.11
2023-04-21T16:36:58.638Z,99195.67
2023-04-21T16:39:27.837Z,99200.10
2023-04-21T16:41:55.909Z,99203.65
2023-04-21T16:44:24.031Z,99202.27
2023-04-21T16:46:52.422Z,99202.23
2023-04-21T16:49:20.704Z,99205.33
2023-04-21T16:51:49.311Z,99206.27
2023-04-21T16:54:17.468Z,99202.98
2023-04-21T16:56:45.948Z,99210.56
2023-04-21T16:59:14.219Z,99216.27
2023-04-21T17:01:42.494Z,99220.26
2023-04-21T17:04:14.125Z,99221.91
2023-04-21T17:06:42.643Z,99227.73
2023-04-21T17:09:10.751Z,99229.63
2023-04-21T17:11:44.723Z,99232.80
2023-04-21T17:14:13.903Z,99240.15
2023-04-21T17:16:42.057Z,99244.30
2023-04-21T17:19:10.186Z,99250.79
2023-04-21T17:21:38.214Z,99251.35
2023-04-21T17:24:06.449Z,99251.84
2023-04-21T17:26:34.513Z,99255.42
2023-04-21T17:29:02.728Z,99258.30
2023-04-21T17:31:33.221Z,99263.66
2023-04-21T17:34:01.475Z,99262.40
2023-04-21T17:36:30.008Z,99265.21
2023-04-21T17:38:58.633Z,99272.41
2023-04-21T17:41:26.985Z,99275.17
2023-04-21T17:43:55.025Z,99273.53
2023-04-21T17:46:25.029Z,99272.26
2023-04-21T17:48:53.813Z,99271.38
2023-04-21T17:51:21.937Z,99280.20
2023-04-21T17:53:50.090Z,99283.84
2023-04-21T17:56:19.020Z,99285.59
2023-04-21T17:58:47.182Z,99284.98
2023-04-21T18:01:15.622Z,99287.62
2023-04-21T18:03:44.391Z,99282.13
2023-04-21T18:06:16.091Z,99285.84
2023-04-21T18:08:52.459Z,99274.30
2023-04-21T18:12:01.994Z,99263.95
2023-04-21T18:15:06.788Z,99266.48
2023-04-21T18:17:56.832Z,99268.66
2023-04-21T18:21:10.240Z,99268.91
2023-04-21T18:24:10.382Z,99270.14
2023-04-21T18:27:07.403Z,99260.59
2023-04-21T18:33:04.612Z,99257.20
2023-04-21T18:36:17.272Z,99260.48
2023-04-21T18:39:10.771Z,99255.38
2023-04-21T18:41:52.082Z,99259.57
2023-04-21T18:44:45.640Z,99262.16
2023-04-21T18:47:26.228Z,99264.84
2023-04-21T18:49:54.311Z,99267.76
2023-04-21T18:52:23.578Z,99268.35
2023-04-21T18:54:52.545Z,99270.95
2023-04-21T18:57:23.547Z,99269.70
2023-04-21T18:59:52.744Z,99266.52
2023-04-21T19:02:20.996Z,99261.36
2023-04-21T19:04:49.870Z,99265.39
2023-04-21T19:07:18.701Z,99260.15
2023-04-21T19:09:47.265Z,99254.39
2023-04-21T19:12:16.045Z,99257.03
2023-04-21T19:14:47.479Z,99256.44
2023-04-21T19:17:26.270Z,99253.73
2023-04-21T19:19:55.710Z,99251.86
2023-04-21T19:22:24.412Z,99252.27
2023-04-21T19:24:56.065Z,99251.46
2023-04-21T19:27:24.167Z,99238.30
2023-04-21T19:29:52.208Z,99235.26
2023-04-21T19:32:20.837Z,99229.30
2023-04-21T19:34:49.564Z,99225.20
2023-04-21T19:37:17.854Z,99220.46
2023-04-21T19:39:45.871Z,99218.72
2023-04-21T19:42:13.957Z,99213.60
2023-04-21T19:44:41.917Z,99214.94
2023-04-21T19:47:10.319Z,99209.94
2023-04-21T19:49:38.504Z,99215.08
2023-04-21T19:52:06.890Z,99216.39
2023-04-21T19:54:35.740Z,99213.20
2023-04-21T19:57:04.109Z,99215.21
2023-04-21T19:59:34.734Z,99217.61
2023-04-21T20:02:02.832Z,99219.15
2023-04-21T20:04:32.231Z,99219.08
2023-04-21T20:07:00.470Z,99220.12
2023-04-21T20:09:28.833Z,99221.19
2023-04-21T20:11:56.883Z,99225.27
2023-04-21T20:14:25.404Z,99228.98
2023-04-21T20:16:53.417Z,99228.80
2023-04-21T20:19:22.918Z,99228.85
2023-04-21T20:21:51.165Z,99225.88
2023-04-21T20:24:19.510Z,99224.75
2023-04-21T20:26:47.606Z,99222.65
2023-04-21T20:29:16.216Z,99222.34
2023-04-21T20:31:45.561Z,99225.73
2023-04-21T20:34:13.890Z,99221.70
2023-04-21T20:36:41.997Z,99222.41
2023-04-21T20:39:10.088Z,99223.26
2023-04-21T20:41:39.066Z,99221.39
2023-04-21T20:44:09.204Z,99215.17
2023-04-21T20:46:37.800Z,99210.20
2023-04-21T20:49:06.185Z,99201.42
2023-04-21T20:51:34.570Z,99202.38
2023-04-21T20:54:02.787Z,99204.46
2023-04-21T20:56:30.953Z,99209.52
2023-04-21T20:58:59.143Z,99211.72
2023-04-21T21:01:28.729Z,99207.34
2023-04-21T21:04:01.437Z,99209.27
2023-04-21T21:06:30.941Z,99207.59
2023-04-21T21:08:59.419Z,99203.80
2023-04-21T21:11:27.548Z,99207.33
2023-04-21T21:13:56.291Z,99205.98
2023-04-21T21:16:26.921Z,99204.79
2023-04-21T21:18:55.181Z,99205.74
2023-04-21T21:21:24.021Z,99208.90
2023-04-21T21:23:52.185Z,99207.55
2023-04-21T21:26:20.644Z,99209.45
2023-04-21T21:28:48.855Z,99207.12
2023-04-21T21:31:16.957Z,99206.85
2023-04-21T21:33:44.916Z,99208.05
2023-04-21T21:36:13.048Z,99206.30
2023-04-21T21:38:41.543Z,99204.96
2023-04-21T21:41:12.353Z,99205.95
2023-04-21T21:43:40.500Z,99200.84
2023-04-21T21:46:09.103Z,99202.66
2023-04-21T21:48:37.366Z,99205.15
2023-04-21T21:51:05.828Z,99204.64
2023-04-21T21:53:35.035Z,99201.95
2023-04-21T21:56:03.239Z,99205.23
2023-04-21T21:58:31.635Z,99204.02
2023-04-21T22:00:59.931Z,99203.66
2023-04-21T22:03:29.076Z,99211.27
2023-04-21T22:05:57.584Z,99209.12
2023-04-21T22:08:26.175Z,99209.17
2023-04-21T22:10:54.264Z,99209.70
2023-04-21T22:13:22.380Z,99209.92
2023-04-21T22:15:50.864Z,99205.67
2023-04-21T22:18:19.438Z,99208.23
2023-04-21T22:20:47.659Z,99208.86
2023-04-21T22:23:16.596Z,99209.87
2023-04-21T22:25:45.393Z,99208.45
2023-04-21T22:28:13.692Z,99205.65
2023-04-21T22:30:42.155Z,99204.06
2023-04-21T22:33:10.349Z,99203.52
2023-04-21T22:35:38.668Z,99199.67
2023-04-21T22:38:06.710Z,99195.09
2023-04-21T22:40:36.154Z,99196.92
2023-04-21T22:43:04.159Z,99190.70
2023-04-21T22:45:32.516Z,99189.70
2023-04-21T22:48:01.005Z,99190.88
2023-04-21T22:50:30.029Z,99186.43
2023-04-21T22:52:58.192Z,99189.59
2023-04-21T22:55:27.337Z,99187.11
2023-04-21T22:57:55.471Z,99185.76
2023-04-21T23:00:23.795Z,99183.98
2023-04-21T23:02:52.044Z,99179.48
2023-04-21T23:05:20.474Z,99176.02
2023-04-21T23:07:48.547Z,99173.84
2023-04-21T23:10:16.554Z,99172.48
2023-04-21T23:12:44.931Z,99171.31
2023-04-21T23:15:13.186Z,99174.35
2023-04-21T23:17:43.038Z,99172.48
2023-04-21T23:20:11.634Z,99178.05
2023-04-21T23:22:41.168Z,99179.04
2023-04-21T23:25:09.570Z,99180.91
2023-04-21T23:27:37.712Z,99180.74
2023-04-21T23:30:07.276Z,99183.41
2023-04-21T23:32:36.750Z,99187.84
2023-04-21T23:35:05.365Z,99182.67
2023-04-21T23:37:33.805Z,99179.18
2023-04-21T23:40:01.989Z,99179.67
2023-04-21T23:42:30.760Z,99181.05
2023-04-21T23:44:58.919Z,99176.72
2023-04-21T23:47:27.358Z,99177.96
2023-04-21T23:49:55.670Z,99178.61
2023-04-21T23:52:23.730Z,99177.66
2023-04-21T23:54:51.886Z,99181.00
2023-04-21T23:57:19.949Z,99178.23
2023-04-21T23:59:48.098Z,99176.53
